sensor_id;sensor_type;location;lat;lon;timestamp;pressure;altitude;pressure_sealevel;temperature;humidity
47330;BME280;33060;50.178;7.570;2022-12-07T00:01:46;97127.88;;;1.71;100.00
47330;BME280;33060;50.178;7.570;2022-12-07T00:04:15;97127.09;;;1.69;100.00
47330;BME280;33060;50.178;7.570;2022-12-07T00:06:43;97125.59;;;1.62;100.00
47330;BME280;33060;50.178;7.570;2022-12-07T00:09:12;97116.47;;;1.50;100.00
47330;BME280;33060;50.178;7.570;2022-12-07T00:11:39;97110.44;;;1.50;100.00
47330;BME280;33060;50.178;7.570;2022-12-07T00:14:11;97109.59;;;1.49;100.00
47330;BME280;33060;50.178;7.570;2022-12-07T00:16:38;97104.22;;;1.54;100.00
47330;BME280;33060;50.178;7.570;2022-12-07T00:19:05;97105.66;;;1.62;100.00
47330;BME280;33060;50.178;7.570;2022-12-07T00:21:34;97103.84;;;1.64;100.00
47330;BME280;33060;50.178;7.570;2022-12-07T00:24:02;97109.03;;;1.64;100.00
47330;BME280;33060;50.178;7.570;2022-12-07T00:26:32;97106.41;;;1.66;100.00
47330;BME280;33060;50.178;7.570;2022-12-07T00:29:06;97097.53;;;1.72;100.00
47330;BME280;33060;50.178;7.570;2022-12-07T00:31:35;97100.41;;;1.64;100.00
47330;BME280;33060;50.178;7.570;2022-12-07T00:34:06;97100.63;;;1.58;100.00
47330;BME280;33060;50.178;7.570;2022-12-07T00:36:33;97093.72;;;1.57;100.00
47330;BME280;33060;50.178;7.570;2022-12-07T00:39:00;97098.81;;;1.60;100.00
47330;BME280;33060;50.178;7.570;2022-12-07T00:41:28;97086.59;;;1.62;100.00
47330;BME280;33060;50.178;7.570;2022-12-07T00:43:55;97084.72;;;1.67;100.00
47330;BME280;33060;50.178;7.570;2022-12-07T00:46:22;97079.50;;;1.67;100.00
47330;BME280;33060;50.178;7.570;2022-12-07T00:48:50;97080.19;;;1.72;100.00
47330;BME280;33060;50.178;7.570;2022-12-07T00:51:19;97086.09;;;1.77;100.00
47330;BME280;33060;50.178;7.570;2022-12-07T00:53:46;97078.28;;;1.77;100.00
47330;BME280;33060;50.178;7.570;2022-12-07T00:56:17;97074.00;;;1.76;100.00
47330;BME280;33060;50.178;7.570;2022-12-07T00:58:50;97079.97;;;1.78;100.00
47330;BME280;33060;50.178;7.570;2022-12-07T01:01:16;97073.75;;;1.82;100.00
47330;BME280;33060;50.178;7.570;2022-12-07T01:03:43;97066.78;;;1.84;100.00
47330;BME280;33060;50.178;7.570;2022-12-07T01:06:14;97071.75;;;1.90;100.00
47330;BME280;33060;50.178;7.570;2022-12-07T01:08:40;97071.84;;;1.87;100.00
47330;BME280;33060;50.178;7.570;2022-12-07T01:11:09;97066.66;;;1.87;100.00
47330;BME280;33060;50.178;7.570;2022-12-07T01:13:36;97075.19;;;1.91;100.00
47330;BME280;33060;50.178;7.570;2022-12-07T01:16:04;97072.69;;;1.88;100.00
47330;BME280;33060;50.178;7.570;2022-12-07T01:18:33;97075.09;;;1.94;100.00
47330;BME280;33060;50.178;7.570;2022-12-07T01:21:10;97069.91;;;1.94;100.00
47330;BME280;33060;50.178;7.570;2022-12-07T01:23:37;97064.75;;;1.92;100.00
47330;BME280;33060;50.178;7.570;2022-12-07T01:26:09;97068.94;;;1.96;100.00
47330;BME280;33060;50.178;7.570;2022-12-07T01:28:36;97067.22;;;1.95;100.00
47330;BME280;33060;50.178;7.570;2022-12-07T01:31:05;97070.63;;;1.97;100.00
47330;BME280;33060;50.178;7.570;2022-12-07T01:33:34;97067.13;;;1.98;100.00
47330;BME280;33060;50.178;7.570;2022-12-07T01:36:03;97067.13;;;1.98;100.00
47330;BME280;33060;50.178;7.570;2022-12-07T01:38:31;97064.38;;;2.03;100.00
47330;BME280;33060;50.178;7.570;2022-12-07T01:40:59;97058.13;;;2.07;100.00
47330;BME280;33060;50.178;7.570;2022-12-07T01:43:28;97064.09;;;2.11;100.00
47330;BME280;33060;50.178;7.570;2022-12-07T01:45:55;97067.63;;;2.08;100.00
47330;BME280;33060;50.178;7.570;2022-12-07T01:48:37;97060.00;;;2.04;100.00
47330;BME280;33060;50.178;7.570;2022-12-07T01:51:09;97064.19;;;2.08;100.00
47330;BME280;33060;50.178;7.570;2022-12-07T01:53:40;97068.44;;;2.10;100.00
47330;BME280;33060;50.178;7.570;2022-12-07T01:56:11;97064.09;;;2.11;100.00
47330;BME280;33060;50.178;7.570;2022-12-07T01:58:40;97050.97;;;2.14;100.00
47330;BME280;33060;50.178;7.570;2022-12-07T02:01:07;97058.09;;;2.09;100.00
47330;BME280;33060;50.178;7.570;2022-12-07T02:03:38;97050.97;;;2.14;100.00
47330;BME280;33060;50.178;7.570;2022-12-07T02:06:07;97050.97;;;2.14;100.00
47330;BME280;33060;50.178;7.570;2022-12-07T02:08:34;97051.81;;;2.14;100.00
47330;BME280;33060;50.178;7.570;2022-12-07T02:11:03;97043.00;;;2.18;100.00
47330;BME280;33060;50.178;7.570;2022-12-07T02:13:35;97048.06;;;2.21;100.00
47330;BME280;33060;50.178;7.570;2022-12-07T02:16:21;97037.09;;;2.13;100.00
47330;BME280;33060;50.178;7.570;2022-12-07T02:18:59;97037.09;;;2.13;100.00
47330;BME280;33060;50.178;7.570;2022-12-07T02:21:38;97032.81;;;2.12;100.00
47330;BME280;33060;50.178;7.570;2022-12-07T02:35:21;97031.84;;;2.15;100.00
47330;BME280;33060;50.178;7.570;2022-12-07T02:41:02;97039.50;;;2.19;100.00
47330;BME280;33060;50.178;7.570;2022-12-07T02:43:30;97042.03;;;2.21;100.00
47330;BME280;33060;50.178;7.570;2022-12-07T02:46:09;97035.13;;;2.20;100.00
47330;BME280;33060;50.178;7.570;2022-12-07T02:48:39;97032.63;;;2.17;100.00
47330;BME280;33060;50.178;7.570;2022-12-07T02:51:07;97033.59;;;2.14;100.00
47330;BME280;33060;50.178;7.570;2022-12-07T02:53:39;97038.00;;;2.12;100.00
47330;BME280;33060;50.178;7.570;2022-12-07T02:56:33;97037.88;;;2.15;100.00
47330;BME280;33060;50.178;7.570;2022-12-07T02:59:32;97027.47;;;2.15;100.00
47330;BME280;33060;50.178;7.570;2022-12-07T03:07:46;97040.28;;;2.21;100.00
47330;BME280;33060;50.178;7.570;2022-12-07T03:10:39;97030.03;;;2.17;100.00
47330;BME280;33060;50.178;7.570;2022-12-07T03:13:12;97043.03;;;2.17;100.00
47330;BME280;33060;50.178;7.570;2022-12-07T03:18:22;97035.34;;;2.14;100.00
47330;BME280;33060;50.178;7.570;2022-12-07T03:20:52;97030.06;;;2.15;100.00
47330;BME280;33060;50.178;7.570;2022-12-07T03:23:23;97021.50;;;2.13;100.00
47330;BME280;33060;50.178;7.570;2022-12-07T03:25:56;97032.19;;;2.06;100.00
47330;BME280;33060;50.178;7.570;2022-12-07T03:28:31;97024.31;;;2.07;100.00
47330;BME280;33060;50.178;7.570;2022-12-07T03:31:07;97021.63;;;2.10;100.00
47330;BME280;33060;50.178;7.570;2022-12-07T03:34:08;97021.44;;;2.15;100.00
47330;BME280;33060;50.178;7.570;2022-12-07T03:36:59;97018.88;;;2.13;100.00
47330;BME280;33060;50.178;7.570;2022-12-07T03:39:33;97014.72;;;2.09;100.00
47330;BME280;33060;50.178;7.570;2022-12-07T03:42:01;97014.72;;;2.09;100.00
47330;BME280;33060;50.178;7.570;2022-12-07T03:44:31;97017.13;;;2.14;100.00
47330;BME280;33060;50.178;7.570;2022-12-07T03:47:05;97016.22;;;2.15;100.00
47330;BME280;33060;50.178;7.570;2022-12-07T03:49:43;97010.97;;;2.16;100.00
47330;BME280;33060;50.178;7.570;2022-12-07T03:52:42;97001.31;;;2.20;100.00
47330;BME280;33060;50.178;7.570;2022-12-07T03:55:22;97008.41;;;2.15;100.00
47330;BME280;33060;50.178;7.570;2022-12-07T03:57:54;97007.41;;;2.19;100.00
47330;BME280;33060;50.178;7.570;2022-12-07T04:00:23;97007.34;;;2.20;100.00
47330;BME280;33060;50.178;7.570;2022-12-07T04:02:52;97010.03;;;2.19;100.00
47330;BME280;33060;50.178;7.570;2022-12-07T04:05:19;97005.75;;;2.16;100.00
47330;BME280;33060;50.178;7.570;2022-12-07T04:07:46;97005.72;;;2.18;100.00
47330;BME280;33060;50.178;7.570;2022-12-07T04:10:13;97007.41;;;2.19;100.00
47330;BME280;33060;50.178;7.570;2022-12-07T04:12:40;97003.84;;;2.21;100.00
47330;BME280;33060;50.178;7.570;2022-12-07T04:15:08;97008.88;;;2.26;100.00
47330;BME280;33060;50.178;7.570;2022-12-07T04:17:35;97009.81;;;2.23;100.00
47330;BME280;33060;50.178;7.570;2022-12-07T04:20:02;96995.91;;;2.24;100.00
47330;BME280;33060;50.178;7.570;2022-12-07T04:22:32;97004.69;;;2.22;100.00
47330;BME280;33060;50.178;7.570;2022-12-07T04:24:58;97003.78;;;2.23;100.00
47330;BME280;33060;50.178;7.570;2022-12-07T04:27:25;97004.56;;;2.25;100.00
47330;BME280;33060;50.178;7.570;2022-12-07T04:29:51;97002.78;;;2.27;100.00
47330;BME280;33060;50.178;7.570;2022-12-07T04:32:18;97002.88;;;2.24;100.00
47330;BME280;33060;50.178;7.570;2022-12-07T04:34:45;97008.88;;;2.26;100.00
47330;BME280;33060;50.178;7.570;2022-12-07T04:37:11;97000.16;;;2.27;100.00
47330;BME280;33060;50.178;7.570;2022-12-07T04:39:38;97002.88;;;2.24;100.00
47330;BME280;33060;50.178;7.570;2022-12-07T04:42:05;97008.91;;;2.24;100.00
47330;BME280;33060;50.178;7.570;2022-12-07T04:44:31;97011.50;;;2.26;100.00
47330;BME280;33060;50.178;7.570;2022-12-07T04:46:58;97008.81;;;2.28;100.00
47330;BME280;33060;50.178;7.570;2022-12-07T04:49:25;97003.56;;;2.29;100.00
47330;BME280;33060;50.178;7.570;2022-12-07T04:51:52;97005.38;;;2.27;100.00
47330;BME280;33060;50.178;7.570;2022-12-07T04:54:18;97001.06;;;2.26;100.00
47330;BME280;33060;50.178;7.570;2022-12-07T04:56:45;97006.28;;;2.26;100.00
47330;BME280;33060;50.178;7.570;2022-12-07T04:59:13;97002.81;;;2.25;100.00
47330;BME280;33060;50.178;7.570;2022-12-07T05:01:40;96997.59;;;2.25;100.00
47330;BME280;33060;50.178;7.570;2022-12-07T05:04:07;97002.66;;;2.30;100.00
47330;BME280;33060;50.178;7.570;2022-12-07T05:06:34;97002.81;;;2.25;100.00
47330;BME280;33060;50.178;7.570;2022-12-07T05:09:02;96998.34;;;2.29;100.00
47330;BME280;33060;50.178;7.570;2022-12-07T05:11:29;97001.94;;;2.26;100.00
47330;BME280;33060;50.178;7.570;2022-12-07T05:16:43;97002.50;;;2.33;100.00
47330;BME280;33060;50.178;7.570;2022-12-07T05:19:10;97011.22;;;2.32;100.00
47330;BME280;33060;50.178;7.570;2022-12-07T05:21:37;97006.09;;;2.31;100.00
47330;BME280;33060;50.178;7.570;2022-12-07T05:24:05;97001.59;;;2.34;100.00
47330;BME280;33060;50.178;7.570;2022-12-07T05:26:32;97007.69;;;2.35;100.00
47330;BME280;33060;50.178;7.570;2022-12-07T05:28:58;97008.47;;;2.37;100.00
47330;BME280;33060;50.178;7.570;2022-12-07T05:31:26;97009.31;;;2.37;100.00
47330;BME280;33060;50.178;7.570;2022-12-07T05:33:53;97009.38;;;2.36;100.00
47330;BME280;33060;50.178;7.570;2022-12-07T05:36:21;97013.75;;;2.35;100.00
47330;BME280;33060;50.178;7.570;2022-12-07T05:38:48;97018.03;;;2.36;100.00
47330;BME280;33060;50.178;7.570;2022-12-07T05:41:17;97010.09;;;2.39;100.00
47330;BME280;33060;50.178;7.570;2022-12-07T05:44:03;97004.13;;;2.37;100.00
47330;BME280;33060;50.178;7.570;2022-12-07T05:46:30;97009.38;;;2.36;100.00
47330;BME280;33060;50.178;7.570;2022-12-07T05:48:56;97006.78;;;2.36;100.00
47330;BME280;33060;50.178;7.570;2022-12-07T05:51:25;97007.63;;;2.36;100.00
47330;BME280;33060;50.178;7.570;2022-12-07T05:53:51;97008.47;;;2.37;100.00
47330;BME280;33060;50.178;7.570;2022-12-07T05:56:18;96999.63;;;2.41;100.00
47330;BME280;33060;50.178;7.570;2022-12-07T05:58:45;96997.94;;;2.40;100.00
47330;BME280;33060;50.178;7.570;2022-12-07T06:01:30;97006.72;;;2.37;100.00
47330;BME280;33060;50.178;7.570;2022-12-07T06:03:57;97001.38;;;2.40;100.00
47330;BME280;33060;50.178;7.570;2022-12-07T06:06:23;97002.06;;;2.45;100.00
47330;BME280;33060;50.178;7.570;2022-12-07T06:08:50;96995.94;;;2.46;100.00
47330;BME280;33060;50.178;7.570;2022-12-07T06:11:16;97006.34;;;2.46;100.00
47330;BME280;33060;50.178;7.570;2022-12-07T06:14:02;97002.84;;;2.47;100.00
47330;BME280;33060;50.178;7.570;2022-12-07T06:16:28;97002.84;;;2.47;100.00
47330;BME280;33060;50.178;7.570;2022-12-07T06:18:55;97000.38;;;2.44;100.00
47330;BME280;33060;50.178;7.570;2022-12-07T06:21:22;97002.28;;;2.39;100.00
47330;BME280;33060;50.178;7.570;2022-12-07T06:23:48;96999.69;;;2.39;100.00
47330;BME280;33060;50.178;7.570;2022-12-07T06:26:15;97007.38;;;2.42;100.00
47330;BME280;33060;50.178;7.570;2022-12-07T06:28:42;97006.34;;;2.46;100.00
47330;BME280;33060;50.178;7.570;2022-12-07T06:31:09;97006.34;;;2.46;100.00
47330;BME280;33060;50.178;7.570;2022-12-07T06:33:40;97008.06;;;2.47;100.00
47330;BME280;33060;50.178;7.570;2022-12-07T06:36:07;97007.00;;;2.51;100.00
47330;BME280;33060;50.178;7.570;2022-12-07T06:38:34;97018.41;;;2.49;100.00
47330;BME280;33060;50.178;7.570;2022-12-07T06:41:01;97007.13;;;2.48;100.00
47330;BME280;33060;50.178;7.570;2022-12-07T06:43:27;97005.38;;;2.49;100.00
47330;BME280;33060;50.178;7.570;2022-12-07T06:45:54;97006.13;;;2.52;100.00
47330;BME280;33060;50.178;7.570;2022-12-07T06:48:21;97003.63;;;2.49;100.00
47330;BME280;33060;50.178;7.570;2022-12-07T06:50:48;97008.78;;;2.51;100.00
47330;BME280;33060;50.178;7.570;2022-12-07T06:53:20;97006.97;;;2.53;100.00
47330;BME280;33060;50.178;7.570;2022-12-07T06:55:47;97014.16;;;2.46;100.00
47330;BME280;33060;50.178;7.570;2022-12-07T06:58:13;97010.59;;;2.49;100.00
47330;BME280;33060;50.178;7.570;2022-12-07T07:00:40;97013.19;;;2.49;100.00
47330;BME280;33060;50.178;7.570;2022-12-07T07:03:07;97015.16;;;2.44;100.00
47330;BME280;33060;50.178;7.570;2022-12-07T07:05:34;97015.16;;;2.44;100.00
47330;BME280;33060;50.178;7.570;2022-12-07T07:08:01;97016.00;;;2.44;100.00
47330;BME280;33060;50.178;7.570;2022-12-07T07:10:49;97013.41;;;2.43;100.00
47330;BME280;33060;50.178;7.570;2022-12-07T07:13:15;97015.19;;;2.42;100.00
47330;BME280;33060;50.178;7.570;2022-12-07T07:15:42;97027.19;;;2.46;100.00
47330;BME280;33060;50.178;7.570;2022-12-07T07:18:09;97021.91;;;2.48;100.00
47330;BME280;33060;50.178;7.570;2022-12-07T07:20:36;97027.13;;;2.48;100.00
47330;BME280;33060;50.178;7.570;2022-12-07T07:23:03;97024.50;;;2.48;100.00
47330;BME280;33060;50.178;7.570;2022-12-07T07:25:29;97025.38;;;2.48;100.00
47330;BME280;33060;50.178;7.570;2022-12-07T07:27:56;97030.56;;;2.48;100.00
47330;BME280;33060;50.178;7.570;2022-12-07T07:30:23;97029.59;;;2.51;100.00
47330;BME280;33060;50.178;7.570;2022-12-07T07:32:50;97027.06;;;2.49;100.00
47330;BME280;33060;50.178;7.570;2022-12-07T07:35:17;97031.31;;;2.52;100.00
47330;BME280;33060;50.178;7.570;2022-12-07T07:37:43;97029.56;;;2.52;100.00
47330;BME280;33060;50.178;7.570;2022-12-07T07:40:10;97043.28;;;2.56;100.00
47330;BME280;33060;50.178;7.570;2022-12-07T07:42:37;97041.53;;;2.57;100.00
47330;BME280;33060;50.178;7.570;2022-12-07T07:45:04;97043.91;;;2.63;100.00
47330;BME280;33060;50.178;7.570;2022-12-07T07:47:31;97043.91;;;2.63;100.00
47330;BME280;33060;50.178;7.570;2022-12-07T07:49:58;97044.84;;;2.60;100.00
47330;BME280;33060;50.178;7.570;2022-12-07T07:52:24;97049.19;;;2.61;100.00
47330;BME280;33060;50.178;7.570;2022-12-07T07:54:51;97043.91;;;2.63;100.00
47330;BME280;33060;50.178;7.570;2022-12-07T07:57:18;97043.91;;;2.63;100.00
47330;BME280;33060;50.178;7.570;2022-12-07T07:59:44;97046.38;;;2.66;100.00
47330;BME280;33060;50.178;7.570;2022-12-07T08:02:16;97046.44;;;2.64;100.00
47330;BME280;33060;50.178;7.570;2022-12-07T08:04:43;97047.25;;;2.66;100.00
47330;BME280;33060;50.178;7.570;2022-12-07T08:07:11;97041.19;;;2.66;100.00
47330;BME280;33060;50.178;7.570;2022-12-07T08:09:39;97040.22;;;2.68;100.00
47330;BME280;33060;50.178;7.570;2022-12-07T08:12:05;97047.00;;;2.72;100.00
47330;BME280;33060;50.178;7.570;2022-12-07T08:14:33;97045.25;;;2.73;100.00
47330;BME280;33060;50.178;7.570;2022-12-07T08:17:00;97045.97;;;2.76;100.00
47330;BME280;33060;50.178;7.570;2022-12-07T08:19:27;97048.94;;;2.89;100.00
47330;BME280;33060;50.178;7.570;2022-12-07T08:21:54;97049.38;;;3.00;100.00
47330;BME280;33060;50.178;7.570;2022-12-07T08:24:22;97044.09;;;3.02;100.00
47330;BME280;33060;50.178;7.570;2022-12-07T08:26:49;97039.63;;;3.05;100.00
47330;BME280;33060;50.178;7.570;2022-12-07T08:29:17;97049.66;;;3.15;99.75
47330;BME280;33060;50.178;7.570;2022-12-07T08:31:44;97051.22;;;3.19;99.48
47330;BME280;33060;50.178;7.570;2022-12-07T08:34:11;97057.00;;;3.05;98.92
47330;BME280;33060;50.178;7.570;2022-12-07T08:36:38;97057.97;;;3.02;99.66
47330;BME280;33060;50.178;7.570;2022-12-07T08:39:05;97060.00;;;2.94;100.00
47330;BME280;33060;50.178;7.570;2022-12-07T08:41:52;97059.25;;;2.92;100.00
47330;BME280;33060;50.178;7.570;2022-12-07T08:44:18;97054.44;;;3.03;99.50
47330;BME280;33060;50.178;7.570;2022-12-07T08:46:52;97055.28;;;3.26;98.81
47330;BME280;33060;50.178;7.570;2022-12-07T08:49:27;97056.13;;;3.26;98.60
47330;BME280;33060;50.178;7.570;2022-12-07T08:51:55;97057.34;;;3.18;97.25
47330;BME280;33060;50.178;7.570;2022-12-07T08:54:22;97053.50;;;3.06;98.81
47330;BME280;33060;50.178;7.570;2022-12-07T08:56:49;97049.00;;;3.09;99.22
47330;BME280;33060;50.178;7.570;2022-12-07T08:59:24;97052.34;;;3.13;98.59
47330;BME280;33060;50.178;7.570;2022-12-07T09:01:51;97054.81;;;3.16;98.16
47330;BME280;33060;50.178;7.570;2022-12-07T09:04:18;97052.97;;;3.18;98.09
47330;BME280;33060;50.178;7.570;2022-12-07T09:06:45;97044.81;;;3.05;98.79
47330;BME280;33060;50.178;7.570;2022-12-07T09:09:13;97047.59;;;3.01;100.00
47330;BME280;33060;50.178;7.570;2022-12-07T09:11:40;97057.47;;;2.93;100.00
47330;BME280;33060;50.178;7.570;2022-12-07T09:14:07;97053.13;;;2.93;100.00
47330;BME280;33060;50.178;7.570;2022-12-07T09:16:33;97057.78;;;3.07;99.53
47330;BME280;33060;50.178;7.570;2022-12-07T09:19:00;97060.66;;;3.21;99.94
47330;BME280;33060;50.178;7.570;2022-12-07T09:21:27;97060.34;;;3.29;98.24
47330;BME280;33060;50.178;7.570;2022-12-07T09:23:53;97060.78;;;3.40;97.49
47330;BME280;33060;50.178;7.570;2022-12-07T09:26:20;97058.03;;;3.43;97.83
47330;BME280;33060;50.178;7.570;2022-12-07T09:28:46;97056.34;;;3.62;96.76
47330;BME280;33060;50.178;7.570;2022-12-07T09:31:13;97050.94;;;3.67;95.16
47330;BME280;33060;50.178;7.570;2022-12-07T09:33:57;97051.38;;;3.97;93.37
47330;BME280;33060;50.178;7.570;2022-12-07T09:36:25;97051.22;;;4.39;91.05
47330;BME280;33060;50.178;7.570;2022-12-07T09:38:52;97051.94;;;4.04;91.91
47330;BME280;33060;50.178;7.570;2022-12-07T09:41:19;97050.63;;;3.75;92.74
47330;BME280;33060;50.178;7.570;2022-12-07T09:43:46;97052.03;;;3.82;93.39
47330;BME280;33060;50.178;7.570;2022-12-07T09:46:15;97051.88;;;4.05;92.97
47330;BME280;33060;50.178;7.570;2022-12-07T09:48:44;97057.50;;;3.96;93.50
47330;BME280;33060;50.178;7.570;2022-12-07T09:51:18;97057.25;;;3.82;92.62
47330;BME280;33060;50.178;7.570;2022-12-07T09:53:52;97055.00;;;3.74;93.76
47330;BME280;33060;50.178;7.570;2022-12-07T09:56:19;97055.22;;;3.88;94.24
47330;BME280;33060;50.178;7.570;2022-12-07T09:58:47;97051.00;;;3.86;93.82
47330;BME280;33060;50.178;7.570;2022-12-07T10:01:19;97048.75;;;3.97;93.99
47330;BME280;33060;50.178;7.570;2022-12-07T10:03:52;97050.84;;;3.89;93.92
47330;BME280;33060;50.178;7.570;2022-12-07T10:06:19;97048.66;;;4.00;94.57
47330;BME280;33060;50.178;7.570;2022-12-07T10:08:46;97040.03;;;3.78;93.98
47330;BME280;33060;50.178;7.570;2022-12-07T10:11:13;97037.00;;;3.68;94.56
47330;BME280;33060;50.178;7.570;2022-12-07T10:13:44;97030.47;;;3.58;95.45
47330;BME280;33060;50.178;7.570;2022-12-07T10:16:38;97036.47;;;3.60;95.08
47330;BME280;33060;50.178;7.570;2022-12-07T10:19:30;97030.34;;;3.61;96.12
47330;BME280;33060;50.178;7.570;2022-12-07T10:22:04;97024.94;;;3.65;95.57
47330;BME280;33060;50.178;7.570;2022-12-07T10:24:32;97023.63;;;3.76;94.39
47330;BME280;33060;50.178;7.570;2022-12-07T10:26:59;97020.25;;;3.74;94.78
47330;BME280;33060;50.178;7.570;2022-12-07T10:29:32;97029.72;;;3.95;93.59
47330;BME280;33060;50.178;7.570;2022-12-07T10:32:23;97016.84;;;3.90;92.13
47330;BME280;33060;50.178;7.570;2022-12-07T10:35:19;97014.03;;;3.76;93.91
47330;BME280;33060;50.178;7.570;2022-12-07T10:37:47;97005.44;;;3.74;93.69
47330;BME280;33060;50.178;7.570;2022-12-07T10:40:28;97000.78;;;4.00;91.57
47330;BME280;33060;50.178;7.570;2022-12-07T10:45:35;97001.53;;;4.22;91.70
47330;BME280;33060;50.178;7.570;2022-12-07T10:48:45;97005.63;;;4.28;91.39
47330;BME280;33060;50.178;7.570;2022-12-07T11:07:42;96993.94;;;3.78;93.49
47330;BME280;33060;50.178;7.570;2022-12-07T11:21:17;96975.00;;;4.12;91.28
47330;BME280;33060;50.178;7.570;2022-12-07T11:32:17;96972.53;;;4.47;91.13
47330;BME280;33060;50.178;7.570;2022-12-07T11:34:59;96967.31;;;4.47;90.95
47330;BME280;33060;50.178;7.570;2022-12-07T11:37:34;96956.69;;;4.50;90.09
47330;BME280;33060;50.178;7.570;2022-12-07T11:42:46;96959.22;;;4.51;90.16
47330;BME280;33060;50.178;7.570;2022-12-07T11:45:20;96952.97;;;4.56;89.44
47330;BME280;33060;50.178;7.570;2022-12-07T11:47:53;96947.72;;;4.56;91.30
47330;BME280;33060;50.178;7.570;2022-12-07T11:55:58;96937.00;;;4.62;90.17
47330;BME280;33060;50.178;7.570;2022-12-07T12:06:33;96927.25;;;4.29;92.63
47330;BME280;33060;50.178;7.570;2022-12-07T12:09:20;96927.25;;;4.29;91.50
47330;BME280;33060;50.178;7.570;2022-12-07T12:15:27;96927.47;;;4.61;89.81
47330;BME280;33060;50.178;7.570;2022-12-07T12:21:12;96916.97;;;4.79;88.76
47330;BME280;33060;50.178;7.570;2022-12-07T12:23:46;96909.22;;;4.78;88.20
47330;BME280;33060;50.178;7.570;2022-12-07T12:26:26;96910.03;;;4.61;88.37
47330;BME280;33060;50.178;7.570;2022-12-07T12:29:26;96904.69;;;4.45;87.96
47330;BME280;33060;50.178;7.570;2022-12-07T12:32:16;96905.34;;;4.32;88.01
47330;BME280;33060;50.178;7.570;2022-12-07T12:35:00;96903.34;;;4.19;88.60
47330;BME280;33060;50.178;7.570;2022-12-07T12:42:50;96899.97;;;4.17;88.05
47330;BME280;33060;50.178;7.570;2022-12-07T12:48:02;96897.72;;;4.46;86.74
47330;BME280;33060;50.178;7.570;2022-12-07T12:50:36;96889.19;;;4.60;87.33
47330;BME280;33060;50.178;7.570;2022-12-07T13:03:53;96893.84;;;4.17;88.16
47330;BME280;33060;50.178;7.570;2022-12-07T13:06:34;96892.53;;;4.08;88.53
47330;BME280;33060;50.178;7.570;2022-12-07T13:09:02;96900.66;;;4.02;89.25
47330;BME280;33060;50.178;7.570;2022-12-07T13:11:34;96889.31;;;4.03;88.74
47330;BME280;33060;50.178;7.570;2022-12-07T13:20:03;96894.09;;;3.93;90.39
47330;BME280;33060;50.178;7.570;2022-12-07T13:25:02;96891.78;;;3.68;89.52
47330;BME280;33060;50.178;7.570;2022-12-07T13:27:31;96892.81;;;3.64;89.87
47330;BME280;33060;50.178;7.570;2022-12-07T13:29:58;96895.63;;;3.60;89.93
47330;BME280;33060;50.178;7.570;2022-12-07T13:32:27;96888.81;;;3.57;88.70
47330;BME280;33060;50.178;7.570;2022-12-07T13:34:54;96887.81;;;3.60;88.88
47330;BME280;33060;50.178;7.570;2022-12-07T13:37:31;96886.13;;;3.59;89.58
47330;BME280;33060;50.178;7.570;2022-12-07T13:40:21;96878.88;;;3.65;88.43
47330;BME280;33060;50.178;7.570;2022-12-07T13:43:00;96879.84;;;3.63;86.33
47330;BME280;33060;50.178;7.570;2022-12-07T13:45:32;96879.72;;;3.66;86.81
47330;BME280;33060;50.178;7.570;2022-12-07T13:48:33;96871.25;;;3.61;86.65
47330;BME280;33060;50.178;7.570;2022-12-07T13:51:03;96872.44;;;3.54;86.56
47330;BME280;33060;50.178;7.570;2022-12-07T13:53:30;96874.56;;;3.64;86.33
47330;BME280;33060;50.178;7.570;2022-12-07T13:55:58;96868.91;;;3.55;86.32
47330;BME280;33060;50.178;7.570;2022-12-07T13:58:27;96877.56;;;3.55;86.82
47330;BME280;33060;50.178;7.570;2022-12-07T14:00:56;96874.28;;;3.52;88.32
47330;BME280;33060;50.178;7.570;2022-12-07T14:03:27;96880.66;;;3.45;87.72
47330;BME280;33060;50.178;7.570;2022-12-07T14:06:24;96871.31;;;3.40;88.05
47330;BME280;33060;50.178;7.570;2022-12-07T14:09:17;96869.16;;;3.30;87.46
47330;BME280;33060;50.178;7.570;2022-12-07T14:11:46;96865.69;;;3.29;87.25
47330;BME280;33060;50.178;7.570;2022-12-07T14:14:17;96866.34;;;3.34;86.45
47330;BME280;33060;50.178;7.570;2022-12-07T14:16:55;96870.47;;;3.40;86.13
47330;BME280;33060;50.178;7.570;2022-12-07T14:19:49;96870.47;;;3.40;86.42
47330;BME280;33060;50.178;7.570;2022-12-07T14:22:21;96868.06;;;3.35;86.57
47330;BME280;33060;50.178;7.570;2022-12-07T14:24:49;96869.66;;;3.38;86.98
47330;BME280;33060;50.178;7.570;2022-12-07T14:27:29;96869.47;;;3.43;86.30
47330;BME280;33060;50.178;7.570;2022-12-07T14:29:57;96872.94;;;3.43;86.49
47330;BME280;33060;50.178;7.570;2022-12-07T14:32:26;96869.75;;;3.36;87.27
47330;BME280;33060;50.178;7.570;2022-12-07T14:34:58;96863.94;;;3.30;86.90
47330;BME280;33060;50.178;7.570;2022-12-07T14:37:27;96863.47;;;3.22;86.94
47330;BME280;33060;50.178;7.570;2022-12-07T14:39:55;96868.69;;;3.22;87.26
47330;BME280;33060;50.178;7.570;2022-12-07T14:42:23;96865.94;;;3.25;85.96
47330;BME280;33060;50.178;7.570;2022-12-07T14:44:51;96866.44;;;3.33;86.42
47330;BME280;33060;50.178;7.570;2022-12-07T14:47:17;96863.06;;;3.31;85.88
47330;BME280;33060;50.178;7.570;2022-12-07T14:50:05;96865.66;;;3.31;87.47
47330;BME280;33060;50.178;7.570;2022-12-07T14:52:32;96867.44;;;3.30;86.28
47330;BME280;33060;50.178;7.570;2022-12-07T14:55:30;96866.34;;;3.34;87.90
47330;BME280;33060;50.178;7.570;2022-12-07T14:57:57;96873.47;;;3.31;87.39
47330;BME280;33060;50.178;7.570;2022-12-07T15:00:27;96869.53;;;3.22;86.51
47330;BME280;33060;50.178;7.570;2022-12-07T15:02:55;96876.81;;;3.14;88.19
47330;BME280;33060;50.178;7.570;2022-12-07T15:05:22;96868.50;;;3.06;88.53
47330;BME280;33060;50.178;7.570;2022-12-07T15:07:49;96871.75;;;2.91;90.17
47330;BME280;33060;50.178;7.570;2022-12-07T15:12:49;96869.41;;;2.64;91.49
47330;BME280;33060;50.178;7.570;2022-12-07T15:15:16;96864.44;;;2.58;92.67
47330;BME280;33060;50.178;7.570;2022-12-07T15:17:43;96857.00;;;2.49;95.09
47330;BME280;33060;50.178;7.570;2022-12-07T15:20:14;96857.84;;;2.49;95.83
47330;BME280;33060;50.178;7.570;2022-12-07T15:22:43;96862.53;;;2.41;97.10